CSN8044 MMSD-ZGSZ
Flight info
| Callsign | CSN8044 |
|---|---|
| Flight time | N/A |
| Altitude | 34000 |
| Route | ANEGO1B ANEGO UL312 ALMUN DCT EIREE DCT LAX J1 AVE DCT ENI DCT LINUZ DCT NATTE/N0492F360 DCT 43N128W 45N130W DCT FASEL DCT 48N133W 50N135W 52N137W DCT SAYNT DCT 57N143W DCT MDO J804R TED/N0493F380 J111 MCG H222 VALDA/K0926F380 N222 ARNAP T634 GOPNA/K0920F400 T634 MAGIT/K0928S1220 R213 JMU G212 VYK W37 GUSIV/K0907S1250 W37 PEXID/K0911S1220 W37 OMBEB/K0904S1250 R473 NNX/K0898S1310 R473 NOLON W90 POU W7 SAREX SAREX3 |
| Aircraft | A359/H-SDE2E3GHIJ3J4J5LM1ORWXY/LB1D1 |
Departure
| Time | N/A |
|---|---|
| Airport | Los Cabos International Airport (MMSD) |
Arrival
| Time | 2026-04-11 07:46 |
|---|---|
| Airport | Shenzhen Bao'an International Airport (ZGSZ) |
| Time | Latitude | Longitude | Altitude | Speed | Heading |
|---|---|---|---|---|---|
| 2026-04-11 07:17 | 23.44459 | 113.34963 | 37774 ft | 473 kts | 203° |
| 2026-04-11 07:17 | 23.38224 | 113.32625 | 37774 ft | 474 kts | 202° |
| 2026-04-11 07:18 | 23.32033 | 113.30318 | 37774 ft | 473 kts | 202° |
| 2026-04-11 07:18 | 23.25771 | 113.27955 | 37771 ft | 473 kts | 202° |
| 2026-04-11 07:19 | 23.22721 | 113.26800 | 37291 ft | 468 kts | 202° |
| 2026-04-11 07:19 | 23.19632 | 113.25626 | 36278 ft | 474 kts | 202° |
| 2026-04-11 07:19 | 23.16488 | 113.24432 | 35382 ft | 479 kts | 202° |
| 2026-04-11 07:19 | 23.13376 | 113.23253 | 35090 ft | 469 kts | 202° |
| 2026-04-11 07:20 | 23.10321 | 113.22098 | 34850 ft | 459 kts | 202° |
| 2026-04-11 07:20 | 23.07343 | 113.20969 | 34619 ft | 449 kts | 202° |
| 2026-04-11 07:20 | 23.04306 | 113.20246 | 34383 ft | 445 kts | 186° |
| 2026-04-11 07:20 | 23.01223 | 113.20467 | 33915 ft | 449 kts | 171° |
| 2026-04-11 07:21 | 22.98262 | 113.21633 | 33170 ft | 459 kts | 154° |
| 2026-04-11 07:21 | 22.95685 | 113.23709 | 32547 ft | 466 kts | 137° |
| 2026-04-11 07:21 | 22.93731 | 113.26518 | 32021 ft | 469 kts | 121° |
| 2026-04-11 07:21 | 22.92563 | 113.29820 | 31504 ft | 472 kts | 104° |
| 2026-04-11 07:22 | 22.92174 | 113.33356 | 31015 ft | 471 kts | 96° |
| 2026-04-11 07:22 | 22.91757 | 113.36859 | 30529 ft | 466 kts | 103° |
| 2026-04-11 07:22 | 22.90950 | 113.40241 | 30189 ft | 458 kts | 110° |
| 2026-04-11 07:22 | 22.89886 | 113.43457 | 29950 ft | 448 kts | 114° |
| 2026-04-11 07:23 | 22.88684 | 113.46540 | 29711 ft | 438 kts | 117° |
| 2026-04-11 07:23 | 22.87426 | 113.49510 | 29485 ft | 429 kts | 118° |
| 2026-04-11 07:23 | 22.86175 | 113.52359 | 29236 ft | 420 kts | 119° |
| 2026-04-11 07:23 | 22.84904 | 113.55164 | 29042 ft | 410 kts | 121° |
| 2026-04-11 07:24 | 22.83879 | 113.58020 | 28803 ft | 407 kts | 103° |
| 2026-04-11 07:24 | 22.83817 | 113.61056 | 28571 ft | 402 kts | 81° |
| 2026-04-11 07:24 | 22.84725 | 113.63867 | 28369 ft | 392 kts | 62° |
| 2026-04-11 07:24 | 22.85746 | 113.66562 | 28133 ft | 384 kts | 80° |
| 2026-04-11 07:25 | 22.85896 | 113.68487 | 27991 ft | 375 kts | 94° |
| 2026-04-11 07:25 | 22.85745 | 113.71273 | 27782 ft | 367 kts | 91° |
| 2026-04-11 07:25 | 22.86146 | 113.73994 | 27392 ft | 367 kts | 70° |
| 2026-04-11 07:25 | 22.87356 | 113.76437 | 26711 ft | 373 kts | 51° |
| 2026-04-11 07:26 | 22.88993 | 113.78628 | 25837 ft | 388 kts | 47° |
| 2026-04-11 07:26 | 22.90796 | 113.80892 | 24926 ft | 404 kts | 46° |
| 2026-04-11 07:26 | 22.92667 | 113.83237 | 24056 ft | 418 kts | 46° |
| 2026-04-11 07:26 | 22.94772 | 113.85450 | 23147 ft | 424 kts | 32° |
| 2026-04-11 07:27 | 22.97381 | 113.86920 | 22135 ft | 424 kts | 13° |
| 2026-04-11 07:27 | 23.00265 | 113.87458 | 21159 ft | 420 kts | 354° |
| 2026-04-11 07:27 | 23.03121 | 113.87019 | 20208 ft | 413 kts | 336° |
| 2026-04-11 07:27 | 23.05666 | 113.85663 | 19290 ft | 405 kts | 318° |
| 2026-04-11 07:28 | 23.07641 | 113.83548 | 18403 ft | 396 kts | 300° |
| 2026-04-11 07:28 | 23.08857 | 113.80906 | 17429 ft | 389 kts | 282° |
| 2026-04-11 07:28 | 23.09247 | 113.78031 | 16440 ft | 385 kts | 269° |
| 2026-04-11 07:28 | 23.09264 | 113.75124 | 15472 ft | 381 kts | 266° |
| 2026-04-11 07:29 | 23.09249 | 113.72306 | 14522 ft | 366 kts | 266° |
| 2026-04-11 07:29 | 23.09246 | 113.69587 | 13625 ft | 353 kts | 266° |
| 2026-04-11 07:29 | 23.09255 | 113.66966 | 12621 ft | 342 kts | 266° |
| 2026-04-11 07:29 | 23.09260 | 113.64423 | 11644 ft | 332 kts | 266° |
| 2026-04-11 07:30 | 23.09256 | 113.61947 | 10758 ft | 323 kts | 266° |
| 2026-04-11 07:30 | 23.09246 | 113.59575 | 10231 ft | 303 kts | 266° |
| 2026-04-11 07:30 | 23.09238 | 113.57382 | 10026 ft | 277 kts | 266° |
| 2026-04-11 07:30 | 23.09238 | 113.55384 | 9993 ft | 254 kts | 266° |
| 2026-04-11 07:31 | 23.09243 | 113.53521 | 9890 ft | 241 kts | 266° |
| 2026-04-11 07:31 | 23.09248 | 113.51707 | 9463 ft | 243 kts | 266° |
| 2026-04-11 07:31 | 23.09247 | 113.49821 | 8686 ft | 256 kts | 266° |
| 2026-04-11 07:31 | 23.09246 | 113.47834 | 7651 ft | 278 kts | 266° |
| 2026-04-11 07:32 | 23.09247 | 113.45652 | 6782 ft | 291 kts | 266° |
| 2026-04-11 07:32 | 23.09256 | 113.43479 | 6264 ft | 290 kts | 266° |
| 2026-04-11 07:32 | 23.09280 | 113.41329 | 6026 ft | 278 kts | 267° |
| 2026-04-11 07:32 | 23.09141 | 113.39317 | 5975 ft | 256 kts | 251° |
| 2026-04-11 07:33 | 23.08280 | 113.37698 | 5988 ft | 248 kts | 224° |
| 2026-04-11 07:33 | 23.06811 | 113.36747 | 5821 ft | 249 kts | 199° |
| 2026-04-11 07:33 | 23.05076 | 113.36501 | 5312 ft | 255 kts | 186° |
| 2026-04-11 07:33 | 23.03322 | 113.36645 | 5066 ft | 246 kts | 172° |
| 2026-04-11 07:34 | 23.01756 | 113.37316 | 4619 ft | 245 kts | 152° |
| 2026-04-11 07:34 | 23.00554 | 113.38614 | 3986 ft | 246 kts | 128° |
| 2026-04-11 07:34 | 22.99749 | 113.40243 | 3381 ft | 245 kts | 120° |
| 2026-04-11 07:34 | 22.99039 | 113.41917 | 3079 ft | 242 kts | 120° |
| 2026-04-11 07:35 | 22.98349 | 113.43569 | 3006 ft | 238 kts | 119° |
| 2026-04-11 07:35 | 22.97703 | 113.45120 | 2990 ft | 211 kts | 119° |
| 2026-04-11 07:35 | 22.97133 | 113.46490 | 2981 ft | 192 kts | 120° |
| 2026-04-11 07:35 | 22.96579 | 113.47797 | 2984 ft | 189 kts | 120° |
| 2026-04-11 07:36 | 22.96027 | 113.49093 | 2993 ft | 189 kts | 122° |
| 2026-04-11 07:36 | 22.95476 | 113.50381 | 3000 ft | 187 kts | 121° |
| 2026-04-11 07:36 | 22.94927 | 113.51667 | 3001 ft | 188 kts | 122° |
| 2026-04-11 07:36 | 22.94379 | 113.52951 | 3002 ft | 188 kts | 121° |
| 2026-04-11 07:37 | 22.93828 | 113.54240 | 3003 ft | 188 kts | 121° |
| 2026-04-11 07:37 | 22.93277 | 113.55532 | 2997 ft | 188 kts | 121° |
| 2026-04-11 07:37 | 22.92728 | 113.56819 | 3001 ft | 188 kts | 122° |
| 2026-04-11 07:37 | 22.92179 | 113.58108 | 2999 ft | 187 kts | 121° |
| 2026-04-11 07:38 | 22.91640 | 113.59370 | 3003 ft | 187 kts | 120° |
| 2026-04-11 07:38 | 22.91094 | 113.60648 | 3001 ft | 187 kts | 121° |
| 2026-04-11 07:38 | 22.90538 | 113.61950 | 3001 ft | 189 kts | 121° |
| 2026-04-11 07:38 | 22.89996 | 113.63224 | 3000 ft | 188 kts | 122° |
| 2026-04-11 07:39 | 22.89445 | 113.64509 | 3006 ft | 187 kts | 121° |
| 2026-04-11 07:39 | 22.88901 | 113.65784 | 3015 ft | 185 kts | 121° |
| 2026-04-11 07:39 | 22.88304 | 113.67013 | 3013 ft | 183 kts | 132° |
| 2026-04-11 07:39 | 22.87404 | 113.67961 | 3016 ft | 180 kts | 148° |
| 2026-04-11 07:40 | 22.86359 | 113.68663 | 3006 ft | 172 kts | 155° |
| 2026-04-11 07:40 | 22.85325 | 113.69258 | 3008 ft | 167 kts | 157° |
| 2026-04-11 07:40 | 22.84292 | 113.69832 | 3009 ft | 166 kts | 156° |
| 2026-04-11 07:40 | 22.83261 | 113.70401 | 3017 ft | 165 kts | 157° |
| 2026-04-11 07:41 | 22.82243 | 113.70968 | 3021 ft | 164 kts | 158° |
| 2026-04-11 07:41 | 22.81229 | 113.71534 | 3012 ft | 165 kts | 158° |
| 2026-04-11 07:41 | 22.80207 | 113.72103 | 3020 ft | 166 kts | 158° |
| 2026-04-11 07:41 | 22.79176 | 113.72672 | 2965 ft | 167 kts | 158° |
| 2026-04-11 07:42 | 22.78144 | 113.73240 | 2764 ft | 165 kts | 158° |
| 2026-04-11 07:42 | 22.77134 | 113.73797 | 2547 ft | 162 kts | 157° |
| 2026-04-11 07:42 | 22.76138 | 113.74346 | 2335 ft | 159 kts | 157° |
| 2026-04-11 07:43 | 22.74237 | 113.75394 | 1922 ft | 146 kts | 157° |
| 2026-04-11 07:43 | 22.73356 | 113.75880 | 1733 ft | 140 kts | 157° |
| 2026-04-11 07:43 | 22.72489 | 113.76357 | 1567 ft | 140 kts | 157° |
| 2026-04-11 07:43 | 22.71628 | 113.76830 | 1382 ft | 140 kts | 157° |
| 2026-04-11 07:44 | 22.70769 | 113.77304 | 1211 ft | 137 kts | 158° |
| 2026-04-11 07:44 | 22.69918 | 113.77772 | 1031 ft | 135 kts | 156° |
| 2026-04-11 07:44 | 22.69123 | 113.78211 | 871 ft | 124 kts | 159° |
| 2026-04-11 07:44 | 22.68372 | 113.78624 | 723 ft | 116 kts | 159° |
| 2026-04-11 07:45 | 22.67670 | 113.79009 | 580 ft | 115 kts | 157° |
| 2026-04-11 07:45 | 22.66958 | 113.79401 | 424 ft | 116 kts | 159° |
| 2026-04-11 07:45 | 22.66233 | 113.79800 | 264 ft | 116 kts | 160° |
| 2026-04-11 07:45 | 22.65508 | 113.80198 | 125 ft | 119 kts | 157° |
| 2026-04-11 07:46 | 22.64761 | 113.80615 | 31 ft | 119 kts | 159° |
| 2026-04-11 07:46 | 22.64096 | 113.80974 | 29 ft | 94 kts | 153° |
| 2026-04-11 07:46 | 22.63642 | 113.81223 | 24 ft | 40 kts | 160° |
| 2026-04-11 07:46 | 22.63413 | 113.81252 | 24 ft | 28 kts | 184° |
| 2026-04-11 07:47 | 22.63298 | 113.81224 | 25 ft | 3 kts | 248° |
| 2026-04-11 07:47 | 22.63295 | 113.81186 | 26 ft | 7 kts | 264° |
| 2026-04-11 07:47 | 22.63289 | 113.81124 | 22 ft | 10 kts | 272° |
| 2026-04-11 07:47 | 22.63334 | 113.81066 | 27 ft | 12 kts | 330° |
| 2026-04-11 07:48 | 22.63417 | 113.81019 | 27 ft | 15 kts | 334° |
| 2026-04-11 07:48 | 22.63518 | 113.80961 | 26 ft | 18 kts | 336° |
| 2026-04-11 07:48 | 22.63617 | 113.80887 | 26 ft | 17 kts | 278° |
| 2026-04-11 07:48 | 22.63573 | 113.80766 | 24 ft | 19 kts | 244° |
| 2026-04-11 07:49 | 22.63509 | 113.80630 | 25 ft | 21 kts | 245° |
| 2026-04-11 07:49 | 22.63458 | 113.80563 | 26 ft | 0 kts | 223° |